Estación Meteorológica Peña el Pijo (Robertgarden) [ 03/06/21 14:41:42 CET ]

Fecha Hora Presion(HPa) Temp (°C) Humedad % Rocio (°C) Viento ( m/s) Direccion Lluvia 1Hora(mm) Lluvia 24H(mm) LLuvia Total(mm)
2021-Feb-24 01:09:12 1021.400 6.6 81 3.6 - N     89.61
2021-Feb-24 02:11:06 1021.300 6.9 80 3.7 - N     89.61
2021-Feb-24 03:10:06 1021.100 6.8 80 3.6 - N     89.61
2021-Feb-24 04:13:58 1020.500 6.9 79 3.5 - N     89.61
2021-Feb-24 05:09:17 1020.100 6.3 83 3.6 - N     89.61
2021-Feb-24 06:10:22 1020.400 5.9 84 3.4 - N     89.61
2021-Feb-24 07:09:35 1020.200 5.9 84 3.4 - N     89.61
2021-Feb-24 08:09:37 1020.300 6.5 84 4.0 - N     89.61
2021-Feb-24 09:09:17 1020.700 7.8 82 4.9 - N     89.61
2021-Feb-24 10:09:19 1020.600 9.8 75 5.5 - N     89.61
2021-Feb-24 11:09:26 1020.600 11.0 71 6.0 - N     89.61
2021-Feb-24 12:09:31 1020.500 14.9 53 5.4 - N     89.61
2021-Feb-24 13:09:53 1019.700 14.7 52 4.9 - N     89.61
2021-Feb-24 14:09:38 1018.700 14.5 49 3.9 - N     89.61
2021-Feb-24 15:09:35 1017.900 16.5 44 4.1 - N     89.61
2021-Feb-24 16:09:41 1017.700 14.3 50 4.1 - N     89.61
2021-Feb-24 17:09:36 1017.700 12.6 55 3.7 - N     89.61
2021-Feb-24 18:09:49 1017.400 11.2 61 3.9 - N     89.61
2021-Feb-24 19:09:22 1017.500 9.4 65 3.1 - N     89.61
2021-Feb-24 20:09:26 1017.900 7.8 75 3.6 - N     89.61
2021-Feb-24 21:09:02 1018.000 6.3 78 2.7 - N     89.61
2021-Feb-24 22:09:24 1018.200 5.8 81 2.8 - N     89.61
2021-Feb-24 23:09:19 1018.200 5.9 81 2.9 - N     89.61

Temperatura Máxima:16°    Temperatura Mínima:
Presión Máxima:1021.400 Hpa    Presión Mínima:1017.400 Hpa


Volver